createdAt,value
2019-02-28T00:01:51.659Z,20.80
2019-02-28T00:04:58.602Z,21.12
2019-02-28T00:08:05.544Z,19.57
2019-02-28T00:11:12.423Z,21.50
2019-02-28T00:14:19.416Z,20.88
2019-02-28T00:17:26.469Z,18.40
2019-02-28T00:20:33.490Z,22.15
2019-02-28T00:23:40.395Z,24.82
2019-02-28T00:26:47.942Z,18.57
2019-02-28T00:29:55.006Z,18.85
2019-02-28T00:33:01.974Z,18.37
2019-02-28T00:36:08.855Z,18.85
2019-02-28T00:39:15.743Z,20.10
2019-02-28T00:42:24.422Z,23.25
2019-02-28T00:45:36.256Z,22.27
2019-02-28T00:48:39.990Z,19.57
2019-02-28T00:51:47.686Z,21.17
2019-02-28T00:54:54.469Z,24.47
2019-02-28T00:58:01.423Z,22.05
2019-02-28T01:01:11.547Z,19.35
2019-02-28T01:04:16.919Z,23.85
2019-02-28T01:07:24.030Z,19.20
2019-02-28T01:10:31.177Z,23.12
2019-02-28T01:13:38.029Z,20.90
2019-02-28T01:16:44.817Z,23.02
2019-02-28T01:19:52.529Z,20.15
2019-02-28T01:23:01.978Z,25.35
2019-02-28T01:26:11.796Z,27.13
2019-02-28T01:29:17.328Z,20.90
2019-02-28T01:32:24.565Z,20.10
2019-02-28T01:35:33.175Z,24.20
2019-02-28T01:38:40.045Z,19.02
2019-02-28T01:41:52.141Z,20.37
2019-02-28T01:45:02.065Z,28.42
2019-02-28T01:48:10.174Z,18.20
2019-02-28T01:51:17.371Z,19.12
2019-02-28T01:54:25.121Z,20.62
2019-02-28T01:57:33.342Z,25.32
2019-02-28T02:00:40.252Z,20.50
2019-02-28T02:03:48.811Z,18.82
2019-02-28T02:06:59.672Z,23.75
2019-02-28T02:10:07.134Z,21.00
2019-02-28T02:13:14.018Z,25.23
2019-02-28T02:16:26.771Z,24.12
2019-02-28T02:19:30.165Z,20.85
2019-02-28T02:22:37.167Z,24.80
2019-02-28T02:25:43.959Z,17.95
2019-02-28T02:28:50.834Z,22.75
2019-02-28T02:32:01.193Z,20.00
2019-02-28T02:35:08.378Z,20.37
2019-02-28T02:38:15.478Z,18.00
2019-02-28T02:41:22.491Z,17.92
2019-02-28T02:44:31.811Z,24.55
2019-02-28T02:47:37.969Z,17.20
2019-02-28T02:50:44.914Z,21.90
2019-02-28T02:53:51.911Z,22.98
2019-02-28T02:56:59.132Z,20.30
2019-02-28T03:00:13.295Z,23.22
2019-02-28T03:03:19.716Z,23.50
2019-02-28T03:06:26.680Z,24.10
2019-02-28T03:09:33.561Z,21.33
2019-02-28T03:12:40.454Z,20.48
2019-02-28T03:15:47.360Z,19.25
2019-02-28T03:18:58.000Z,21.97
2019-02-28T03:22:02.959Z,21.48
2019-02-28T03:25:11.611Z,19.20
2019-02-28T03:28:22.999Z,21.65
2019-02-28T03:31:29.917Z,17.73
2019-02-28T03:34:36.780Z,22.32
2019-02-28T03:37:45.572Z,18.23
2019-02-28T03:40:52.449Z,22.58
2019-02-28T03:43:59.368Z,19.73
2019-02-28T03:47:06.241Z,17.30
2019-02-28T03:50:13.446Z,17.50
2019-02-28T03:53:21.137Z,25.00
2019-02-28T03:56:28.247Z,18.67
2019-02-28T03:59:35.510Z,20.35
2019-02-28T04:02:42.410Z,21.02
2019-02-28T04:05:49.389Z,25.55
2019-02-28T04:08:56.202Z,20.52
2019-02-28T04:12:07.272Z,23.32
2019-02-28T04:15:13.827Z,23.30
2019-02-28T04:18:20.604Z,22.30
2019-02-28T04:21:27.509Z,19.57
2019-02-28T04:24:34.468Z,23.80
2019-02-28T04:27:41.813Z,20.17
2019-02-28T04:30:48.854Z,19.82
2019-02-28T04:33:55.672Z,26.37
2019-02-28T04:37:02.665Z,22.55
2019-02-28T04:40:09.799Z,19.07
2019-02-28T04:43:16.974Z,21.30
2019-02-28T04:46:24.055Z,20.40
2019-02-28T04:49:32.170Z,20.52
2019-02-28T04:52:39.078Z,19.27
2019-02-28T04:55:45.966Z,17.32
2019-02-28T04:58:52.836Z,24.57
2019-02-28T05:02:00.011Z,21.62
2019-02-28T05:05:12.090Z,23.00
2019-02-28T05:08:16.329Z,19.25
2019-02-28T05:11:27.424Z,20.32
2019-02-28T05:14:33.017Z,19.12
2019-02-28T05:17:39.826Z,26.48
2019-02-28T05:20:57.770Z,24.27
2019-02-28T05:24:07.728Z,24.37
2019-02-28T05:27:13.884Z,20.65
2019-02-28T05:30:21.276Z,21.25
2019-02-28T05:33:28.213Z,21.20
2019-02-28T05:36:37.882Z,20.23
2019-02-28T05:39:43.759Z,22.02
2019-02-28T05:42:50.738Z,30.35
2019-02-28T05:45:59.391Z,24.32
2019-02-28T05:49:08.733Z,24.23
2019-02-28T05:52:17.423Z,22.48
2019-02-28T05:55:25.688Z,21.02
2019-02-28T05:58:32.827Z,23.67
2019-02-28T06:01:39.642Z,22.48
2019-02-28T06:04:48.798Z,18.98
2019-02-28T06:07:55.703Z,29.37
2019-02-28T06:11:02.456Z,26.60
2019-02-28T06:14:09.351Z,20.15
2019-02-28T06:17:17.330Z,26.82
2019-02-28T06:20:25.051Z,26.17
2019-02-28T06:23:31.914Z,24.43
2019-02-28T06:26:38.833Z,20.92
2019-02-28T06:29:45.791Z,23.15
2019-02-28T06:32:57.823Z,22.17
2019-02-28T06:36:01.205Z,27.65
2019-02-28T06:39:09.124Z,23.15
2019-02-28T06:42:16.232Z,27.22
2019-02-28T06:45:23.057Z,21.10
2019-02-28T06:48:29.915Z,26.42
2019-02-28T06:51:36.862Z,23.75
2019-02-28T06:54:43.706Z,20.62
2019-02-28T06:57:51.824Z,28.10
2019-02-28T07:00:58.574Z,21.87
2019-02-28T07:04:05.460Z,19.17
2019-02-28T07:07:13.713Z,20.08
2019-02-28T07:10:20.800Z,22.05
2019-02-28T07:13:27.710Z,28.92
2019-02-28T07:16:37.785Z,18.55
2019-02-28T07:19:43.564Z,22.87
2019-02-28T07:22:54.709Z,22.32
2019-02-28T07:25:59.328Z,30.23
2019-02-28T07:29:11.066Z,21.37
2019-02-28T07:32:15.835Z,22.45
2019-02-28T07:35:22.755Z,29.02
2019-02-28T07:38:29.782Z,20.50
2019-02-28T07:41:36.611Z,23.10
2019-02-28T07:44:43.405Z,19.92
2019-02-28T07:47:52.784Z,23.75
2019-02-28T07:50:59.339Z,24.75
2019-02-28T07:54:06.576Z,23.02
2019-02-28T07:57:17.005Z,21.52
2019-02-28T08:00:22.411Z,32.23
2019-02-28T08:03:29.542Z,28.10
2019-02-28T08:06:39.236Z,29.57
2019-02-28T08:09:45.217Z,29.70
2019-02-28T08:12:52.226Z,20.35
2019-02-28T08:16:00.330Z,24.05
2019-02-28T08:19:08.991Z,24.80
2019-02-28T08:22:15.862Z,19.80
2019-02-28T08:25:22.747Z,29.10
2019-02-28T08:28:35.848Z,28.23
2019-02-28T08:31:41.067Z,22.95
2019-02-28T08:34:47.975Z,23.92
2019-02-28T08:37:57.294Z,23.30
2019-02-28T08:41:06.432Z,25.62
2019-02-28T08:44:13.498Z,27.50
2019-02-28T08:47:22.057Z,23.90
2019-02-28T08:50:28.983Z,27.40
2019-02-28T08:53:35.839Z,27.13
2019-02-28T08:56:42.745Z,34.30
2019-02-28T08:59:52.524Z,28.92
2019-02-28T09:02:58.327Z,27.30
2019-02-28T09:06:07.483Z,37.08
2019-02-28T09:09:15.007Z,26.73
2019-02-28T09:12:22.248Z,29.92
2019-02-28T09:15:31.117Z,35.03
2019-02-28T09:18:40.737Z,28.47
2019-02-28T09:21:49.393Z,28.15
2019-02-28T09:24:57.272Z,30.97
2019-02-28T09:28:06.011Z,30.25
2019-02-28T09:31:13.002Z,31.30
2019-02-28T09:34:19.965Z,33.55
2019-02-28T09:37:29.478Z,26.33
2019-02-28T09:40:35.778Z,30.10
2019-02-28T09:43:42.719Z,36.42
2019-02-28T09:46:50.685Z,28.77
2019-02-28T09:50:15.585Z,30.45
2019-02-28T09:53:22.495Z,28.52
2019-02-28T09:56:29.387Z,28.38
2019-02-28T09:59:37.684Z,27.15
2019-02-28T10:02:45.258Z,24.02
2019-02-28T10:05:52.141Z,26.40
2019-02-28T10:08:58.904Z,33.58
2019-02-28T10:12:07.843Z,24.32
2019-02-28T10:15:18.581Z,23.85
2019-02-28T10:18:25.676Z,33.13
2019-02-28T10:21:33.283Z,31.52
2019-02-28T10:24:42.136Z,27.73
2019-02-28T10:27:48.990Z,40.17
2019-02-28T10:30:55.836Z,31.65
2019-02-28T10:34:02.791Z,30.40
2019-02-28T10:37:09.901Z,27.62
2019-02-28T10:40:20.150Z,25.88
2019-02-28T10:43:27.168Z,29.32
2019-02-28T10:46:35.998Z,23.35
2019-02-28T10:50:43.002Z,31.20
2019-02-28T10:53:51.666Z,37.65
2019-02-28T10:56:58.654Z,34.63
2019-02-28T11:00:08.465Z,34.03
2019-02-28T11:03:16.116Z,33.70
2019-02-28T11:06:25.339Z,30.32
2019-02-28T11:09:31.941Z,33.88
2019-02-28T11:12:40.891Z,29.55
2019-02-28T11:15:49.254Z,26.82
2019-02-28T11:18:56.421Z,28.67
2019-02-28T11:22:04.915Z,25.82
2019-02-28T11:25:12.736Z,32.10
2019-02-28T11:28:20.342Z,34.98
2019-02-28T11:31:27.204Z,25.48
2019-02-28T11:34:34.173Z,38.02
2019-02-28T11:37:45.362Z,33.13
2019-02-28T11:40:57.049Z,26.00
2019-02-28T11:43:59.607Z,34.98
2019-02-28T11:47:11.137Z,31.25
2019-02-28T11:50:20.489Z,25.85
2019-02-28T11:53:28.010Z,31.17
2019-02-28T11:56:35.051Z,27.00
2019-02-28T11:59:42.140Z,25.82
2019-02-28T12:02:53.295Z,30.30
2019-02-28T12:05:58.751Z,31.12
2019-02-28T12:09:07.651Z,27.22
2019-02-28T12:12:14.957Z,27.32
2019-02-28T12:15:23.579Z,25.23
2019-02-28T12:18:31.949Z,31.70
2019-02-28T12:21:38.970Z,25.02
2019-02-28T12:24:45.930Z,36.55
2019-02-28T12:27:53.063Z,28.45
2019-02-28T12:31:00.250Z,35.10
2019-02-28T12:34:15.174Z,30.27
2019-02-28T12:37:23.119Z,26.15
2019-02-28T12:40:32.318Z,26.07
2019-02-28T12:43:40.608Z,23.65
2019-02-28T12:46:48.080Z,30.25
2019-02-28T12:49:57.902Z,28.62
2019-02-28T12:53:06.632Z,30.62
2019-02-28T12:56:14.263Z,31.55
2019-02-28T12:59:21.961Z,30.05
2019-02-28T13:02:30.218Z,33.75
2019-02-28T13:05:37.460Z,26.90
2019-02-28T13:08:44.435Z,27.10
2019-02-28T13:11:51.576Z,38.92
2019-02-28T13:14:58.379Z,40.23
2019-02-28T13:18:09.056Z,28.38
2019-02-28T13:21:17.767Z,37.95
2019-02-28T13:24:24.674Z,28.60
2019-02-28T13:27:32.220Z,37.25
2019-02-28T13:30:40.129Z,35.65
2019-02-28T13:33:48.598Z,28.95
2019-02-28T13:37:01.920Z,41.15
2019-02-28T13:40:08.400Z,27.48
2019-02-28T13:43:20.986Z,42.90
2019-02-28T13:46:24.441Z,29.48
2019-02-28T13:49:31.282Z,28.67
2019-02-28T13:52:38.297Z,31.48
2019-02-28T13:55:45.395Z,31.17
2019-02-28T13:58:53.672Z,24.80
2019-02-28T14:02:02.742Z,27.25
2019-02-28T14:05:12.149Z,26.52
2019-02-28T14:08:19.128Z,41.83
2019-02-28T14:11:26.231Z,30.27
2019-02-28T14:14:33.177Z,26.33
2019-02-28T14:17:40.293Z,34.58
2019-02-28T14:20:49.087Z,29.23
2019-02-28T14:23:56.785Z,24.92
2019-02-28T14:27:06.430Z,29.75
2019-02-28T14:30:14.396Z,35.92
2019-02-28T14:33:22.954Z,31.05
2019-02-28T14:36:30.914Z,27.58
2019-02-28T14:39:39.820Z,40.40
2019-02-28T14:42:49.109Z,41.73
2019-02-28T14:45:55.976Z,29.37
2019-02-28T14:49:04.607Z,28.10
2019-02-28T14:52:11.587Z,27.93
2019-02-28T14:55:18.855Z,32.10
2019-02-28T14:58:25.886Z,34.05
2019-02-28T15:01:32.885Z,31.33
2019-02-28T15:04:42.259Z,35.80
2019-02-28T15:07:48.435Z,36.03
2019-02-28T15:10:55.350Z,36.83
2019-02-28T15:14:02.721Z,38.28
2019-02-28T15:17:11.479Z,30.05
2019-02-28T15:20:19.092Z,28.85
2019-02-28T15:23:26.071Z,30.85
2019-02-28T15:26:33.300Z,28.85
2019-02-28T15:29:40.263Z,32.15
2019-02-28T15:32:47.079Z,41.33
2019-02-28T15:35:53.969Z,35.68
2019-02-28T15:39:01.017Z,28.50
2019-02-28T15:42:10.835Z,35.33
2019-02-28T15:45:17.850Z,42.48
2019-02-28T15:48:24.912Z,36.90
2019-02-28T15:51:32.090Z,29.80
2019-02-28T15:54:39.137Z,38.92
2019-02-28T15:57:46.225Z,32.33
2019-02-28T16:00:56.332Z,40.48
2019-02-28T16:04:02.481Z,34.40
2019-02-28T16:07:09.835Z,38.50
2019-02-28T16:10:20.317Z,35.85
2019-02-28T16:13:27.150Z,39.20
2019-02-28T16:16:34.488Z,39.30
2019-02-28T16:19:41.330Z,39.78
2019-02-28T16:22:52.079Z,34.55
2019-02-28T16:25:57.356Z,28.57
2019-02-28T16:29:06.651Z,34.70
2019-02-28T16:32:15.200Z,36.30
2019-02-28T16:35:22.520Z,37.25
2019-02-28T16:38:29.395Z,39.25
2019-02-28T16:41:36.929Z,37.60
2019-02-28T16:44:44.562Z,39.45
2019-02-28T16:47:51.493Z,38.45
2019-02-28T16:50:58.426Z,33.13
2019-02-28T16:54:09.627Z,31.87
2019-02-28T16:57:18.876Z,42.08
2019-02-28T17:00:25.911Z,29.42
2019-02-28T17:03:38.310Z,36.30
2019-02-28T17:06:45.704Z,33.78
2019-02-28T17:09:57.290Z,30.88
2019-02-28T17:13:29.750Z,33.85
2019-02-28T17:17:01.401Z,32.48
2019-02-28T17:20:12.545Z,33.05
2019-02-28T17:23:20.597Z,33.45
2019-02-28T17:26:52.045Z,35.10
2019-02-28T17:30:24.764Z,43.10
2019-02-28T17:33:33.418Z,31.60
2019-02-28T17:36:44.160Z,35.23
2019-02-28T17:39:51.062Z,34.63
2019-02-28T17:42:58.966Z,37.50
2019-02-28T17:46:07.691Z,38.58
2019-02-28T17:49:49.709Z,54.98
2019-02-28T17:53:55.090Z,41.25
2019-02-28T17:57:53.682Z,30.82
2019-02-28T18:01:46.437Z,44.53
2019-02-28T18:05:52.977Z,32.40
2019-02-28T18:09:58.985Z,39.70
2019-02-28T18:13:56.682Z,41.73
2019-02-28T18:18:32.764Z,37.98
2019-02-28T18:22:09.192Z,36.80
2019-02-28T18:26:38.699Z,39.45
2019-02-28T18:30:59.712Z,41.40
2019-02-28T18:34:17.033Z,41.55
2019-02-28T18:37:25.805Z,35.98
2019-02-28T18:40:32.813Z,42.60
2019-02-28T18:43:40.459Z,37.80
2019-02-28T18:46:49.128Z,39.73
2019-02-28T18:49:57.748Z,48.78
2019-02-28T18:53:08.918Z,35.33
2019-02-28T18:56:15.836Z,43.17
2019-02-28T18:59:22.877Z,46.55
2019-02-28T19:02:29.828Z,42.03
2019-02-28T19:05:36.845Z,39.70
2019-02-28T19:08:43.797Z,40.65
2019-02-28T19:11:50.941Z,40.35
2019-02-28T19:14:57.878Z,33.42
2019-02-28T19:18:05.111Z,45.73
2019-02-28T19:21:14.950Z,34.00
2019-02-28T19:24:21.998Z,40.52
2019-02-28T19:27:29.018Z,34.20
2019-02-28T19:30:37.063Z,36.58
2019-02-28T19:33:43.997Z,47.73
2019-02-28T19:36:50.960Z,35.08
2019-02-28T19:39:57.896Z,37.58
2019-02-28T19:43:06.121Z,37.58
2019-02-28T19:46:16.003Z,29.95
2019-02-28T19:49:22.924Z,38.85
2019-02-28T19:52:31.973Z,39.38
2019-02-28T19:55:38.945Z,38.92
2019-02-28T19:58:45.907Z,29.10
2019-02-28T20:01:53.146Z,35.35
2019-02-28T20:05:02.939Z,47.65
2019-02-28T20:08:13.792Z,32.73
2019-02-28T20:11:21.960Z,34.10
2019-02-28T20:14:29.019Z,30.40
2019-02-28T20:17:35.900Z,44.45
2019-02-28T20:20:42.871Z,32.90
2019-02-28T20:23:49.834Z,33.90
2019-02-28T20:26:56.772Z,35.28
2019-02-28T20:30:03.801Z,29.07
2019-02-28T20:33:13.242Z,41.63
2019-02-28T20:36:20.354Z,38.33
2019-02-28T20:39:27.247Z,31.25
2019-02-28T20:42:34.160Z,38.28
2019-02-28T20:45:41.200Z,34.35
2019-02-28T20:48:48.041Z,29.45
2019-02-28T20:51:55.530Z,25.08
2019-02-28T20:55:03.761Z,41.75
2019-02-28T20:58:12.043Z,31.02
2019-02-28T21:01:18.951Z,39.42
2019-02-28T21:04:25.900Z,34.23
2019-02-28T21:07:32.834Z,36.58
2019-02-28T21:10:40.928Z,37.25
2019-02-28T21:13:47.744Z,33.50
2019-02-28T21:16:54.722Z,33.60
2019-02-28T21:20:01.759Z,33.48
2019-02-28T21:23:10.652Z,34.03
2019-02-28T21:26:17.589Z,33.05
2019-02-28T21:29:24.411Z,33.25
2019-02-28T21:32:31.434Z,32.65
2019-02-28T21:35:38.597Z,30.20
2019-02-28T21:38:45.483Z,32.13
2019-02-28T21:41:52.486Z,32.65
2019-02-28T21:44:59.380Z,29.90
2019-02-28T21:48:06.684Z,44.63
2019-02-28T21:51:13.613Z,39.40
2019-02-28T21:54:20.595Z,30.12
2019-02-28T21:57:27.391Z,32.63
2019-02-28T22:00:34.466Z,36.40
2019-02-28T22:03:41.325Z,33.42
2019-02-28T22:06:48.247Z,33.23
2019-02-28T22:09:55.250Z,37.23
2019-02-28T22:13:02.354Z,42.95
2019-02-28T22:16:09.447Z,32.20
2019-02-28T22:19:16.402Z,38.08
2019-02-28T22:22:23.298Z,36.05
2019-02-28T22:25:30.288Z,27.82
2019-02-28T22:28:37.187Z,34.27
2019-02-28T22:31:54.103Z,32.55
2019-02-28T22:35:09.187Z,34.80
2019-02-28T22:38:16.464Z,38.48
2019-02-28T22:41:23.318Z,41.48
2019-02-28T22:44:30.328Z,39.65
2019-02-28T22:47:37.261Z,31.00
2019-02-28T22:50:44.077Z,26.70
2019-02-28T22:53:51.984Z,38.02
2019-02-28T22:56:59.126Z,37.83
2019-02-28T23:00:16.638Z,47.00
2019-02-28T23:03:25.041Z,38.02
2019-02-28T23:06:31.958Z,50.25
2019-02-28T23:09:38.778Z,50.48
2019-02-28T23:12:45.726Z,37.55
2019-02-28T23:15:52.589Z,42.75
2019-02-28T23:18:59.707Z,51.10
2019-02-28T23:22:06.821Z,33.53
2019-02-28T23:25:13.861Z,35.63
2019-02-28T23:28:30.470Z,48.95
2019-02-28T23:32:36.090Z,46.02
2019-02-28T23:35:45.705Z,44.75
2019-02-28T23:38:53.654Z,43.40
2019-02-28T23:42:00.669Z,48.65
2019-02-28T23:45:07.786Z,40.67
2019-02-28T23:48:14.834Z,34.73
2019-02-28T23:51:21.716Z,37.38
2019-02-28T23:54:28.787Z,38.17
2019-02-28T23:57:35.678Z,40.17
